Time;durP1;ratioP1;P1;durP2;ratioP2;P2;SDS_P1;SDS_P2;PMS_P1;PMS_P2;Temp;Humidity;BMP_temperature;BMP_pressure;BME280_temperature;BME280_humidity;BME280_pressure;Samples;Min_cycle;Max_cycle;Signal;HPM_P1;HPM_P2
2021/08/06 00:02:00;;;;;;;16.75;2.83;;;;;;;20.10;73.50;99838.81;5095677;28;20051;-62
2021/08/06 00:04:28;;;;;;;10.43;2.92;;;;;;;19.95;74.22;99845.59;5077163;28;20056;-62
2021/08/06 00:06:55;;;;;;;9.88;3.38;;;;;;;20.09;73.57;99850.41;5078057;28;20048;-62
2021/08/06 00:09:22;;;;;;;15.18;3.17;;;;;;;20.03;73.85;99852.00;5096136;28;20048;-62
2021/08/06 00:11:51;;;;;;;10.82;2.97;;;;;;;20.01;73.41;99849.59;5096280;28;20043;-63
2021/08/06 00:14:18;;;;;;;10.25;3.03;;;;;;;20.15;72.75;99849.59;5078578;28;20048;-66
2021/08/06 00:16:46;;;;;;;11.43;2.72;;;;;;;19.94;73.30;99843.19;5075770;28;20645;-66
2021/08/06 00:19:13;;;;;;;10.68;2.63;;;;;;;19.89;73.73;99847.16;5057773;28;20037;-62
2021/08/06 00:21:41;;;;;;;7.78;2.42;;;;;;;19.79;73.95;99849.94;5058286;28;20040;-62
2021/08/06 00:24:08;;;;;;;10.45;3.17;;;;;;;19.79;74.02;99850.75;5075920;28;20052;-62
2021/08/06 00:26:35;;;;;;;12.63;2.95;;;;;;;19.95;73.47;99845.59;5075534;28;20519;-61
2021/08/06 00:29:03;;;;;;;9.68;2.72;;;;;;;19.98;73.34;99843.97;5040576;28;20503;-62
2021/08/06 00:31:31;;;;;;;12.50;2.85;;;;;;;19.86;74.07;99841.56;5075670;28;20036;-65
2021/08/06 00:33:58;;;;;;;12.07;2.65;;;;;;;19.69;74.78;99848.75;5057422;28;20055;-65
2021/08/06 00:36:27;;;;;;;10.98;2.85;;;;;;;19.81;74.86;99853.16;5057487;28;20056;-66
2021/08/06 00:38:55;;;;;;;13.73;3.10;;;;;;;19.99;73.87;99842.81;5041066;28;20055;-66
2021/08/06 00:41:23;;;;;;;14.32;3.20;;;;;;;19.94;73.82;99855.19;5075288;28;20044;-66
2021/08/06 00:43:53;;;;;;;12.10;2.95;;;;;;;19.82;74.54;99860.34;5057222;28;20064;-66
2021/08/06 00:46:25;;;;;;;12.13;2.58;;;;;;;19.67;75.16;99855.91;5041700;28;20056;-63
2021/08/06 00:48:54;;;;;;;14.38;2.95;;;;;;;19.47;75.41;99855.47;5056827;28;20052;-63
2021/08/06 00:51:23;;;;;;;13.27;2.97;;;;;;;19.67;75.01;99851.13;5040999;28;20048;-62
2021/08/06 00:53:55;;;;;;;9.68;2.50;;;;;;;19.87;74.06;99840.41;5058427;28;20056;-62
2021/08/06 00:56:30;;;;;;;8.43;2.55;;;;;;;19.94;73.44;99854.38;5056954;28;20056;-64
2021/08/06 00:58:59;;;;;;;12.68;3.17;;;;;;;20.10;72.64;99846.41;5056841;28;20057;-65
2021/08/06 01:01:30;;;;;;;9.63;2.33;;;;;;;19.86;73.60;99853.56;5057175;28;20421;-65
2021/08/06 01:04:08;;;;;;;9.63;2.95;;;;;;;19.89;72.76;99857.56;5040025;28;20049;-62
2021/08/06 01:06:59;;;;;;;11.13;2.78;;;;;;;20.12;71.81;99858.78;5041377;28;20063;-62
2021/08/06 01:09:30;;;;;;;12.60;2.75;;;;;;;19.95;72.32;99867.16;5040598;28;20059;-65
2021/08/06 01:12:02;;;;;;;12.20;2.58;;;;;;;19.74;73.11;99862.31;5074371;28;20068;-65
2021/08/06 01:14:37;;;;;;;10.32;2.15;;;;;;;19.69;73.04;99854.31;5076202;28;20056;-65
2021/08/06 01:17:11;;;;;;;9.82;2.72;;;;;;;19.67;73.58;99855.91;5076542;28;20060;-65
2021/08/06 01:20:09;;;;;;;11.45;2.45;;;;;;;19.83;72.78;99854.38;5060076;28;20077;-65
2021/08/06 01:22:53;;;;;;;9.07;2.35;;;;;;;19.85;71.75;99846.38;5060210;28;20055;-65
2021/08/06 01:25:48;;;;;;;9.45;2.30;;;;;;;19.75;72.53;99849.16;5061963;28;20051;-66
2021/08/06 01:28:22;;;;;;;11.98;2.58;;;;;;;19.74;73.27;99853.13;5076510;28;20047;-62
2021/08/06 01:30:50;;;;;;;8.98;2.28;;;;;;;19.82;73.40;99857.56;5076647;28;20074;-63
2021/08/06 01:33:18;;;;;;;8.40;2.55;;;;;;;19.80;72.85;99855.16;5076100;28;20048;-61
2021/08/06 01:35:47;;;;;;;11.40;2.87;;;;;;;19.79;73.04;99855.53;5076271;28;20044;-65
2021/08/06 01:38:16;;;;;;;10.90;2.78;;;;;;;19.70;73.06;99849.53;5094465;28;20155;-65
2021/08/06 01:41:06;;;;;;;9.70;3.00;;;;;;;19.76;73.04;99839.56;5076144;28;20044;-64
2021/08/06 01:43:42;;;;;;;7.22;2.20;;;;;;;19.62;73.70;99851.50;5094612;28;20530;-64
2021/08/06 01:46:13;;;;;;;10.73;2.53;;;;;;;19.77;73.25;99852.34;5076291;28;20052;-65
2021/08/06 01:48:42;;;;;;;6.93;2.40;;;;;;;19.72;73.55;99844.34;5076014;28;20044;-66
2021/08/06 01:51:16;;;;;;;9.38;2.55;;;;;;;19.67;73.33;99848.31;5044384;28;20489;-65
2021/08/06 01:53:46;;;;;;;11.88;2.38;;;;;;;19.62;73.88;99850.69;5042577;28;20060;-65
2021/08/06 01:56:18;;;;;;;11.75;2.72;;;;;;;19.84;73.06;99858.75;5059389;28;20071;-65
2021/08/06 01:58:50;;;;;;;9.93;2.55;;;;;;;19.81;73.35;99856.75;5059907;28;20066;-66
2021/08/06 02:01:19;;;;;;;10.68;2.53;;;;;;;19.88;72.89;99851.19;5059748;28;20055;-66
2021/08/06 02:04:00;;;;;;;9.32;2.50;;;;;;;19.80;73.14;99851.56;5075747;28;20067;-66
2021/08/06 02:06:33;;;;;;;7.28;2.38;;;;;;;19.81;73.11;99850.34;5076048;28;20439;-67
2021/08/06 02:09:04;;;;;;;7.93;2.60;;;;;;;19.62;73.92;99845.13;5075705;28;20078;-65
2021/08/06 02:11:40;;;;;;;8.60;2.47;;;;;;;19.63;73.59;99850.31;5093553;28;20056;-66
2021/08/06 02:14:18;;;;;;;9.10;2.22;;;;;;;19.70;73.14;99847.53;5076928;28;20078;-63
2021/08/06 02:16:50;;;;;;;10.65;2.50;;;;;;;19.54;73.29;99849.09;5039170;28;20052;-62
2021/08/06 02:19:22;;;;;;;7.38;2.25;;;;;;;19.87;71.92;99860.78;5039310;28;20051;-64
2021/08/06 02:21:56;;;;;;;7.72;2.45;;;;;;;19.67;72.22;99867.06;5055215;28;20067;-65
2021/08/06 02:24:27;;;;;;;8.50;2.20;;;;;;;19.65;72.80;99864.69;5039420;28;20052;-66
2021/08/06 02:26:55;;;;;;;8.15;2.50;;;;;;;19.43;73.03;99867.81;5039202;28;20063;-61
2021/08/06 02:29:29;;;;;;;8.43;2.20;;;;;;;19.64;73.06;99868.69;5056337;28;20048;-62
2021/08/06 02:32:00;;;;;;;9.07;2.53;;;;;;;19.67;72.33;99867.88;5038922;28;20048;-62
2021/08/06 02:34:28;;;;;;;12.13;2.30;;;;;;;19.73;72.30;99869.13;5038440;28;20083;-65
2021/08/06 02:36:55;;;;;;;13.18;2.40;;;;;;;19.56;72.75;99875.44;5039030;28;20052;-65
2021/08/06 02:39:26;;;;;;;11.93;2.65;;;;;;;19.53;73.04;99873.44;5055378;28;20044;-65
2021/08/06 02:41:57;;;;;;;11.43;2.30;;;;;;;19.46;72.93;99872.59;5038387;28;20063;-66
2021/08/06 02:44:25;;;;;;;10.60;2.50;;;;;;;19.40;73.53;99871.38;5055247;28;20052;-62
2021/08/06 02:46:53;;;;;;;8.25;2.25;;;;;;;19.43;73.14;99873.38;5022178;28;20127;-61
2021/08/06 02:49:20;;;;;;;7.85;2.53;;;;;;;19.50;72.89;99876.22;5073161;28;20049;-63
2021/08/06 02:51:48;;;;;;;11.00;2.47;;;;;;;19.57;72.17;99881.81;5055110;28;20051;-61
2021/08/06 02:54:16;;;;;;;8.27;2.10;;;;;;;19.29;72.99;99878.88;5039008;28;20052;-61
2021/08/06 02:56:45;;;;;;;10.23;2.55;;;;;;;19.33;71.73;99879.72;5055067;28;20055;-61
2021/08/06 02:59:13;;;;;;;7.50;2.05;;;;;;;19.29;72.37;99884.47;5038646;28;20052;-61
2021/08/06 03:01:41;;;;;;;9.90;2.65;;;;;;;19.29;72.21;99885.28;5054937;28;20053;-65
2021/08/06 03:04:09;;;;;;;8.85;2.08;;;;;;;19.51;71.37;99892.56;5055000;28;20049;-63
2021/08/06 03:06:36;;;;;;;7.47;2.22;;;;;;;19.31;71.26;99885.72;5054946;28;20091;-62
2021/08/06 03:09:04;;;;;;;10.70;2.00;;;;;;;19.20;71.76;99893.19;5038397;28;20052;-66
2021/08/06 03:11:31;;;;;;;9.38;2.10;;;;;;;19.17;72.21;99888.41;5038742;28;20456;-66
2021/08/06 03:14:00;;;;;;;9.80;2.63;;;;;;;19.29;71.83;99892.84;5053701;28;20051;-61
2021/08/06 03:16:29;;;;;;;8.35;2.45;;;;;;;19.50;70.97;99893.78;5075235;28;20493;-61
2021/08/06 03:18:56;;;;;;;9.32;2.53;;;;;;;19.32;71.46;99901.25;5074718;28;20048;-62
2021/08/06 03:21:24;;;;;;;12.90;2.63;;;;;;;19.23;71.92;99894.41;5074878;28;20044;-62
2021/08/06 03:23:52;;;;;;;8.32;2.28;;;;;;;19.42;70.98;99892.13;5058168;28;20047;-65
2021/08/06 03:26:19;;;;;;;8.52;2.30;;;;;;;19.11;71.49;99895.53;5093218;28;20363;-65
2021/08/06 03:28:49;;;;;;;9.40;2.53;;;;;;;19.24;71.50;99890.44;5076186;28;20060;-65
2021/08/06 03:31:16;;;;;;;11.88;2.58;;;;;;;19.02;72.00;99904.25;5061970;28;20051;-65
2021/08/06 03:33:43;;;;;;;9.85;2.08;;;;;;;19.10;71.85;99905.13;5078681;28;20044;-65
2021/08/06 03:36:12;;;;;;;8.95;1.90;;;;;;;18.91;71.97;99908.19;5078083;28;20044;-65
2021/08/06 03:38:41;;;;;;;9.50;2.60;;;;;;;19.11;71.19;99901.13;5078510;28;20052;-65
2021/08/06 03:41:09;;;;;;;8.43;2.28;;;;;;;19.15;71.07;99915.09;5096877;28;20051;-65
2021/08/06 03:43:36;;;;;;;8.65;1.75;;;;;;;19.21;70.72;99914.34;5078979;28;20056;-65
2021/08/06 03:46:04;;;;;;;8.65;2.95;;;;;;;19.15;71.29;99917.88;5078597;28;20427;-64
2021/08/06 03:48:31;;;;;;;6.25;2.10;;;;;;;19.14;70.71;99910.72;5061681;28;20063;-65
2021/08/06 03:51:02;;;;;;;9.80;2.10;;;;;;;19.18;70.86;99912.31;5078275;28;20056;-65
2021/08/06 03:53:29;;;;;;;9.77;2.20;;;;;;;19.04;71.10;99918.63;5078547;28;20052;-65
2021/08/06 03:55:57;;;;;;;9.40;2.25;;;;;;;19.18;70.97;99908.75;5096825;28;20054;-65
2021/08/06 03:58:25;;;;;;;8.27;2.00;;;;;;;19.21;70.42;99916.34;5077976;28;20055;-65
2021/08/06 04:00:53;;;;;;;9.70;2.17;;;;;;;19.16;70.80;99927.88;5045435;28;20056;-65
2021/08/06 04:03:21;;;;;;;8.15;2.13;;;;;;;19.22;70.63;99927.13;5078086;28;20044;-65
2021/08/06 04:05:50;;;;;;;9.65;2.13;;;;;;;19.08;70.43;99932.63;5078143;28;20056;-66
2021/08/06 04:08:19;;;;;;;12.68;2.10;;;;;;;19.14;70.86;99927.47;5077965;28;20420;-65
2021/08/06 04:10:52;;;;;;;12.35;2.33;;;;;;;19.05;71.25;99928.63;5077983;28;20052;-66
2021/08/06 04:13:20;;;;;;;7.85;2.30;;;;;;;19.12;70.66;99932.63;5086393;28;20057;-65
2021/08/06 04:15:47;;;;;;;12.23;2.45;;;;;;;19.05;71.37;99941.78;5057904;28;20539;-65
2021/08/06 04:18:15;;;;;;;9.13;2.10;;;;;;;18.74;71.88;99947.94;5039623;28;20047;-64
2021/08/06 04:20:42;;;;;;;12.60;2.33;;;;;;;18.71;72.32;99949.50;5075792;28;20048;-65
2021/08/06 04:23:09;;;;;;;11.15;2.22;;;;;;;18.87;71.54;99946.41;5075967;28;20055;-65
2021/08/06 04:25:37;;;;;;;11.68;2.30;;;;;;;18.93;71.22;99954.03;5059352;28;20044;-66
2021/08/06 04:28:07;;;;;;;11.52;2.38;;;;;;;19.02;70.86;99942.56;5076007;28;20051;-61
2021/08/06 04:30:34;;;;;;;8.25;2.15;;;;;;;18.96;70.76;99950.50;5076977;28;20044;-63
2021/08/06 04:33:02;;;;;;;11.70;3.00;;;;;;;18.69;71.37;99951.84;5076114;28;20067;-62
2021/08/06 04:35:30;;;;;;;9.48;2.13;;;;;;;18.80;71.14;99961.13;5077361;28;20056;-62
2021/08/06 04:37:58;;;;;;;11.48;2.15;;;;;;;18.81;70.96;99959.16;5077030;28;20048;-62
2021/08/06 04:40:28;;;;;;;11.65;2.55;;;;;;;19.14;69.75;99964.56;5095549;28;20048;-62
2021/08/06 04:42:57;;;;;;;9.90;2.05;;;;;;;19.11;69.91;99965.31;5060324;28;20048;-62
2021/08/06 04:45:26;;;;;;;13.40;2.10;;;;;;;18.81;69.81;99964.72;5077576;28;20118;-62
2021/08/06 04:47:55;;;;;;;12.45;2.58;;;;;;;18.82;69.74;99971.91;5077265;28;20058;-62
2021/08/06 04:50:24;;;;;;;9.90;2.75;;;;;;;18.75;70.30;99971.84;5077170;28;20056;-61
2021/08/06 04:52:59;;;;;;;11.88;2.22;;;;;;;18.66;70.58;99968.56;5095473;28;20055;-64
2021/08/06 04:55:28;;;;;;;10.88;2.55;;;;;;;19.13;68.88;99962.94;5077129;28;20082;-63
2021/08/06 04:57:58;;;;;;;8.60;2.00;;;;;;;18.99;68.95;99969.25;5061100;28;20072;-61
2021/08/06 05:00:26;;;;;;;7.95;2.38;;;;;;;19.09;68.11;99974.09;5060624;28;20056;-61
2021/08/06 05:02:53;;;;;;;9.60;2.15;;;;;;;19.06;68.37;99976.88;5095010;28;20467;-61
2021/08/06 05:05:22;;;;;;;11.03;2.27;;;;;;;18.94;69.00;99968.81;5076901;28;20060;-61
2021/08/06 05:07:52;;;;;;;11.00;2.60;;;;;;;18.82;69.00;99975.50;5077123;28;20056;-61
2021/08/06 05:10:23;;;;;;;7.72;1.90;;;;;;;18.93;68.84;99981.16;5060472;28;20059;-62
2021/08/06 05:12:51;;;;;;;6.47;2.27;;;;;;;19.06;68.83;99982.44;5055171;28;20067;-61
2021/08/06 05:15:19;;;;;;;7.75;1.73;;;;;;;19.10;68.31;99977.69;5075179;28;20293;-61
2021/08/06 05:17:47;;;;;;;8.77;2.35;;;;;;;18.97;68.28;99981.97;5056686;28;20056;-61
2021/08/06 05:20:15;;;;;;;9.82;2.22;;;;;;;18.95;68.79;99987.16;5074437;28;20045;-61
2021/08/06 05:22:42;;;;;;;8.40;2.30;;;;;;;18.88;68.79;99981.53;5039586;28;20063;-62
2021/08/06 05:25:11;;;;;;;6.50;1.55;;;;;;;18.74;68.89;99987.78;5056769;28;20678;-62
2021/08/06 05:27:39;;;;;;;7.05;1.63;;;;;;;18.78;69.47;99982.22;5039869;28;20131;-62
2021/08/06 05:30:08;;;;;;;9.75;2.47;;;;;;;19.03;68.49;99978.44;5056469;28;20059;-62
2021/08/06 05:32:37;;;;;;;8.30;2.20;;;;;;;19.18;67.74;99979.34;5055910;28;20127;-63
2021/08/06 05:35:04;;;;;;;11.85;1.80;;;;;;;19.17;67.71;99968.56;5074396;28;20055;-61
2021/08/06 05:37:32;;;;;;;9.38;2.05;;;;;;;19.18;67.65;99978.56;5071520;28;20360;-62
2021/08/06 05:40:01;;;;;;;9.13;2.10;;;;;;;19.06;67.70;99974.06;5058517;28;20049;-62
2021/08/06 05:42:28;;;;;;;8.77;1.80;;;;;;;18.94;68.23;99968.81;5062182;28;20055;-61
2021/08/06 05:44:56;;;;;;;9.65;1.83;;;;;;;18.95;68.64;99970.41;5075436;28;20051;-62
2021/08/06 05:47:25;;;;;;;8.43;2.40;;;;;;;19.13;68.17;99976.91;5075917;28;20074;-62
2021/08/06 05:49:52;;;;;;;11.48;2.40;;;;;;;19.00;68.79;99984.00;5075986;28;20056;-61
2021/08/06 05:52:20;;;;;;;10.98;2.47;;;;;;;19.05;68.77;99984.47;5075833;28;20052;-62
2021/08/06 05:54:47;;;;;;;8.93;2.60;;;;;;;18.90;69.33;99988.31;5094186;28;20466;-62
2021/08/06 05:57:15;;;;;;;11.48;2.28;;;;;;;19.21;68.61;99997.31;5076041;28;20048;-62
2021/08/06 05:59:42;;;;;;;8.30;1.88;;;;;;;19.18;68.55;99986.94;5075311;28;20052;-62
2021/08/06 06:02:10;;;;;;;11.13;2.15;;;;;;;19.24;69.12;99988.16;5092932;28;20163;-62
2021/08/06 06:04:50;;;;;;;10.60;2.40;;;;;;;19.34;68.34;99991.03;5054063;28;20438;-62
2021/08/06 06:07:18;;;;;;;10.25;2.40;;;;;;;19.53;68.23;99984.34;5069768;28;20075;-63
2021/08/06 06:09:46;;;;;;;11.63;2.65;;;;;;;19.29;68.82;99990.56;5093136;28;20046;-62
2021/08/06 06:12:13;;;;;;;11.25;2.22;;;;;;;19.21;69.34;99988.94;5092481;28;20059;-62
2021/08/06 06:14:40;;;;;;;9.32;1.95;;;;;;;19.46;68.86;99995.50;5088555;28;20058;-62
2021/08/06 06:17:08;;;;;;;9.88;2.35;;;;;;;19.37;69.06;99993.06;5074732;28;20066;-62
2021/08/06 06:19:36;;;;;;;7.20;2.05;;;;;;;19.69;67.54;100002.41;5053574;28;20059;-66
2021/08/06 06:22:05;;;;;;;12.50;1.90;;;;;;;19.72;67.71;100007.22;5070646;28;20060;-68
2021/08/06 06:24:34;;;;;;;11.23;1.80;;;;;;;19.56;67.66;100003.94;5073055;28;20135;-70
2021/08/06 06:27:02;;;;;;;9.45;2.15;;;;;;;19.61;69.03;100003.59;5043087;28;20075;-68
2021/08/06 06:29:29;;;;;;;7.63;2.03;;;;;;;19.79;68.31;100001.66;5054489;28;20047;-68
2021/08/06 06:31:57;;;;;;;8.70;2.10;;;;;;;19.88;68.08;100007.69;5072558;28;20047;-68
2021/08/06 06:34:26;;;;;;;9.15;2.28;;;;;;;19.74;68.10;100007.63;5074294;28;20036;-62
2021/08/06 06:36:54;;;;;;;8.60;2.28;;;;;;;20.08;66.70;100010.97;5074527;28;20048;-63
2021/08/06 06:39:21;;;;;;;10.93;2.25;;;;;;;19.93;66.76;100017.69;5074148;28;20062;-62
2021/08/06 06:41:48;;;;;;;12.32;2.15;;;;;;;19.86;66.26;100018.47;5071645;28;20056;-62
2021/08/06 06:44:25;;;;;;;12.32;2.72;;;;;;;20.04;66.81;100026.94;5074287;28;20048;-63
2021/08/06 06:46:52;;;;;;;10.27;2.30;;;;;;;20.14;65.98;100020.56;5070645;28;20059;-63
2021/08/06 06:49:20;;;;;;;13.15;2.25;;;;;;;20.23;65.59;100026.63;5073644;28;20055;-63
2021/08/06 06:51:47;;;;;;;10.93;1.85;;;;;;;19.85;65.80;100022.47;5074106;28;20044;-64
2021/08/06 06:54:14;;;;;;;7.00;2.05;;;;;;;20.17;66.26;100033.00;5057398;28;20036;-67
2021/08/06 06:56:42;;;;;;;8.05;2.15;;;;;;;20.11;66.22;100032.56;5073824;28;20525;-69
2021/08/06 06:59:09;;;;;;;6.28;1.77;;;;;;;20.27;65.47;100024.66;5089824;28;20040;-67
2021/08/06 07:01:36;;;;;;;8.57;2.20;;;;;;;20.10;65.58;100028.94;5090583;28;20051;-69
2021/08/06 07:04:04;;;;;;;8.57;2.17;;;;;;;19.88;65.73;100030.06;5076713;28;20048;-68
2021/08/06 07:06:32;;;;;;;9.32;1.75;;;;;;;20.06;65.82;100030.16;5078071;28;20052;-67
2021/08/06 07:08:59;;;;;;;8.25;1.77;;;;;;;19.93;66.65;100037.25;5077872;28;20048;-68
2021/08/06 07:11:28;;;;;;;10.45;2.47;;;;;;;20.06;65.53;100038.53;5058821;28;20044;-68
2021/08/06 07:13:55;;;;;;;8.07;1.45;;;;;;;20.03;65.64;100042.91;5072826;28;20280;-68
2021/08/06 07:16:23;;;;;;;8.68;1.70;;;;;;;20.11;65.78;100038.16;5065705;28;20056;-67
2021/08/06 07:18:51;;;;;;;8.95;2.33;;;;;;;20.02;65.81;100043.28;5087171;28;20415;-68
2021/08/06 07:21:18;;;;;;;8.32;1.70;;;;;;;20.11;65.62;100040.94;5076967;28;20047;-67
2021/08/06 07:23:46;;;;;;;10.80;2.28;;;;;;;20.11;65.84;100044.53;5077923;28;20043;-67
2021/08/06 07:26:13;;;;;;;6.18;1.60;;;;;;;20.36;64.84;100053.06;5093466;28;20053;-67
2021/08/06 07:28:42;;;;;;;7.53;2.00;;;;;;;20.23;64.87;100051.81;5085773;28;20489;-68
2021/08/06 07:31:10;;;;;;;9.27;1.80;;;;;;;20.25;65.40;100048.59;5077124;28;20584;-68
2021/08/06 07:33:37;;;;;;;8.43;1.70;;;;;;;20.17;65.23;100049.78;5074226;28;20036;-68
2021/08/06 07:36:05;;;;;;;8.25;1.77;;;;;;;20.23;65.74;100045.41;5091352;28;20048;-68
2021/08/06 07:38:32;;;;;;;9.18;1.52;;;;;;;19.96;64.99;100042.88;5074440;28;20047;-67
2021/08/06 07:41:00;;;;;;;7.00;1.83;;;;;;;20.29;64.50;100047.44;5070747;28;20047;-68
2021/08/06 07:43:28;;;;;;;9.40;1.65;;;;;;;20.41;64.32;100049.88;5077509;28;20451;-68
2021/08/06 07:45:57;;;;;;;12.43;2.08;;;;;;;20.52;63.81;100049.91;5076984;28;20044;-68
2021/08/06 07:48:24;;;;;;;12.93;2.22;;;;;;;20.30;64.54;100053.81;5078115;28;20529;-68
2021/08/06 07:50:52;;;;;;;9.30;2.35;;;;;;;20.20;64.54;100060.19;5076659;28;20051;-68
2021/08/06 07:53:20;;;;;;;9.40;1.85;;;;;;;20.03;65.04;100056.88;5093962;28;20060;-69
2021/08/06 07:55:47;;;;;;;11.52;2.58;;;;;;;19.70;66.99;100068.28;5076865;28;20052;-69
2021/08/06 07:58:14;;;;;;;8.98;2.10;;;;;;;19.86;66.74;100070.75;5076533;28;20067;-68
2021/08/06 08:00:42;;;;;;;10.98;1.83;;;;;;;19.79;67.84;100068.75;5078237;28;20063;-68
2021/08/06 08:03:10;;;;;;;7.43;1.55;;;;;;;19.65;68.38;100076.25;5077894;28;20470;-68
2021/08/06 08:05:38;;;;;;;9.57;1.95;;;;;;;19.47;69.22;100076.13;5077026;28;20055;-68
2021/08/06 08:08:08;;;;;;;10.30;2.20;;;;;;;19.53;69.17;100080.16;5074251;28;20044;-68
2021/08/06 08:10:36;;;;;;;9.05;1.80;;;;;;;19.57;69.13;100083.78;5074187;28;20387;-67
2021/08/06 08:13:17;;;;;;;9.02;1.77;;;;;;;19.63;69.02;100084.22;5077149;28;20490;-67
2021/08/06 08:15:48;;;;;;;9.55;1.75;;;;;;;19.58;69.27;100082.56;5075513;28;20381;-67
2021/08/06 08:18:15;;;;;;;14.48;1.75;;;;;;;19.73;68.47;100083.47;5076334;28;20498;-67
2021/08/06 08:20:43;;;;;;;8.88;1.77;;;;;;;19.78;68.21;100085.91;5093809;28;20048;-68
2021/08/06 08:23:11;;;;;;;7.93;1.95;;;;;;;19.99;66.96;100078.44;5077192;28;20052;-68
2021/08/06 08:25:38;;;;;;;7.72;1.83;;;;;;;20.32;65.37;100083.00;5076074;28;20059;-69
2021/08/06 08:28:06;;;;;;;9.75;2.30;;;;;;;20.18;66.14;100074.56;5075129;28;20051;-69
2021/08/06 08:30:36;;;;;;;8.55;1.95;;;;;;;19.94;66.24;100078.81;5054892;28;20060;-69
2021/08/06 08:33:05;;;;;;;7.97;2.20;;;;;;;20.30;64.53;100085.41;5047969;28;20048;-67
2021/08/06 08:35:34;;;;;;;11.38;1.77;;;;;;;20.23;65.26;100076.97;5058873;28;20044;-69
2021/08/06 08:38:02;;;;;;;5.28;1.30;;;;;;;20.20;64.64;100076.97;5074221;28;20048;-68
2021/08/06 08:40:30;;;;;;;10.85;2.92;;;;;;;20.04;65.51;100078.06;5076874;28;20059;-68
2021/08/06 08:42:58;;;;;;;10.18;2.97;;;;;;;20.26;65.24;100083.78;5076695;28;20051;-68
2021/08/06 08:45:26;;;;;;;6.75;1.80;;;;;;;20.43;64.33;100083.03;5076962;28;20147;-67
2021/08/06 08:47:54;;;;;;;9.02;1.90;;;;;;;20.28;64.66;100084.16;5076947;28;20075;-67
2021/08/06 08:50:21;;;;;;;9.02;1.90;;;;;;;20.40;63.78;100079.03;5072325;28;20067;-67
2021/08/06 08:52:49;;;;;;;5.95;1.40;;;;;;;20.23;64.35;100082.56;5076128;28;20058;-68
2021/08/06 08:55:17;;;;;;;6.80;1.70;;;;;;;20.57;62.96;100092.28;5076347;28;20048;-68
2021/08/06 08:57:46;;;;;;;9.15;1.70;;;;;;;20.62;63.35;100094.69;5072196;28;20044;-68
2021/08/06 09:00:16;;;;;;;7.90;1.52;;;;;;;20.42;63.83;100087.84;5074918;28;20087;-67
2021/08/06 09:02:45;;;;;;;6.65;2.63;;;;;;;20.37;64.25;100093.00;5076114;28;20047;-67
2021/08/06 09:05:19;;;;;;;8.43;2.03;;;;;;;20.72;62.93;100090.31;5075911;28;20056;-70
2021/08/06 09:07:58;;;;;;;4.55;1.58;;;;;;;20.77;62.55;100090.72;5057724;28;20051;-69
2021/08/06 09:10:29;;;;;;;8.48;1.80;;;;;;;20.49;63.65;100104.66;5088007;28;20586;-69
2021/08/06 09:13:11;;;;;;;9.60;1.38;;;;;;;20.55;63.80;100102.28;5080992;28;20075;-70
2021/08/06 09:15:55;;;;;;;7.53;1.85;;;;;;;20.68;63.80;100098.69;5080352;28;20058;-68
2021/08/06 09:18:25;;;;;;;9.65;1.70;;;;;;;21.05;62.67;100099.22;5075116;28;20062;-69
2021/08/06 09:20:58;;;;;;;6.53;1.70;;;;;;;21.10;62.25;100093.22;5073347;28;20447;-67
2021/08/06 09:23:35;;;;;;;10.32;1.48;;;;;;;21.43;61.92;100097.59;5073582;28;20036;-69
2021/08/06 09:26:03;;;;;;;15.07;5.13;;;;;;;21.37;61.62;100095.63;5092514;28;20056;-68
2021/08/06 09:28:30;;;;;;;10.27;2.95;;;;;;;21.77;59.76;100107.19;5081350;28;20079;-68
2021/08/06 09:31:13;;;;;;;10.02;1.60;;;;;;;21.40;60.73;100112.41;5094085;28;20048;-69
2021/08/06 09:33:40;;;;;;;6.03;1.55;;;;;;;21.63;60.21;100110.00;5093864;28;20059;-69
2021/08/06 09:36:17;;;;;;;9.65;1.58;;;;;;;21.52;60.52;100116.81;5075379;28;20048;-69
2021/08/06 09:38:45;;;;;;;7.93;1.60;;;;;;;21.59;61.29;100119.59;5094202;28;20040;-68
2021/08/06 09:41:39;;;;;;;10.52;1.70;;;;;;;21.36;62.49;100122.81;5093441;28;20039;-69
2021/08/06 09:44:35;;;;;;;11.73;4.43;;;;;;;21.73;62.39;100114.00;5094298;28;20048;-67
2021/08/06 09:47:18;;;;;;;7.47;2.45;;;;;;;21.73;62.44;100114.00;5068830;28;20056;-67
2021/08/06 09:49:49;;;;;;;6.50;1.95;;;;;;;21.96;61.81;100114.38;5046182;28;20044;-67
2021/08/06 09:52:16;;;;;;;9.85;4.47;;;;;;;22.03;61.71;100120.78;5092651;28;20140;-68
2021/08/06 09:54:49;;;;;;;7.32;1.80;;;;;;;21.70;62.39;100115.63;5092813;28;20044;-67
2021/08/06 09:57:16;;;;;;;8.57;2.42;;;;;;;21.87;62.24;100105.59;5093453;28;20055;-66
2021/08/06 09:59:50;;;;;;;7.35;1.92;;;;;;;21.86;61.53;100113.19;5093848;28;20502;-67
2021/08/06 10:02:20;;;;;;;6.50;1.67;;;;;;;21.95;61.29;100119.19;5093434;28;20051;-69
2021/08/06 10:05:08;;;;;;;6.68;1.95;;;;;;;22.39;59.75;100115.06;5091283;28;20059;-68
2021/08/06 10:07:37;;;;;;;5.75;1.70;;;;;;;22.43;59.15;100102.59;5082091;28;20056;-68
2021/08/06 10:10:06;;;;;;;9.50;2.17;;;;;;;22.34;59.13;100107.84;5093092;28;20055;-63
2021/08/06 10:12:34;;;;;;;10.48;2.10;;;;;;;22.22;59.01;100105.47;5092912;28;20514;-63
2021/08/06 10:15:01;;;;;;;9.80;1.70;;;;;;;22.21;58.00;100121.50;5084722;28;20044;-64
2021/08/06 10:17:29;;;;;;;8.10;2.17;;;;;;;22.15;58.53;100120.34;5092435;28;20063;-63
2021/08/06 10:19:56;;;;;;;10.70;2.40;;;;;;;22.00;58.33;100115.19;5090418;28;20047;-63
2021/08/06 10:22:24;;;;;;;5.68;1.83;;;;;;;21.51;60.44;100120.81;5074100;28;20071;-64
2021/08/06 10:24:53;;;;;;;9.55;3.72;;;;;;;21.85;59.26;100125.63;5074529;28;20047;-65
2021/08/06 10:27:24;;;;;;;14.98;6.28;;;;;;;21.98;59.32;100120.38;5051343;28;20153;-67
2021/08/06 10:29:55;;;;;;;10.23;2.45;;;;;;;22.29;58.11;100125.91;5074685;28;20062;-68
2021/08/06 10:32:23;;;;;;;22.40;5.40;;;;;;;22.24;58.43;100117.91;5092250;28;20055;-68
2021/08/06 10:35:03;;;;;;;56.63;12.38;;;;;;;22.50;58.37;100125.03;5051144;28;20048;-70
2021/08/06 10:37:50;;;;;;;212.55;59.20;;;;;;;22.22;58.45;100122.31;5080905;28;20047;-68
2021/08/06 10:40:35;;;;;;;54.75;13.40;;;;;;;22.52;57.38;100131.03;5074805;28;20051;-69
2021/08/06 10:43:09;;;;;;;60.97;15.68;;;;;;;22.31;58.52;100115.09;5085769;28;20416;-72
2021/08/06 10:45:47;;;;;;;41.55;10.98;;;;;;;22.37;57.46;100114.66;5087246;28;20044;-69
2021/08/06 10:48:35;;;;;;;36.72;10.73;;;;;;;22.43;57.42;100115.81;5072803;28;20061;-70
2021/08/06 10:51:14;;;;;;;22.17;10.35;;;;;;;22.69;56.36;100118.13;5087638;28;20139;-71
2021/08/06 10:53:44;;;;;;;11.85;4.65;;;;;;;22.56;56.57;100114.97;5072910;28;20542;-70
2021/08/06 10:56:17;;;;;;;18.65;4.97;;;;;;;22.53;56.50;100107.34;5085895;28;20079;-68
2021/08/06 10:58:54;;;;;;;16.00;4.97;;;;;;;22.71;56.08;100110.09;5091631;28;20055;-72
2021/08/06 11:01:34;;;;;;;13.55;4.45;;;;;;;22.83;56.10;100110.44;5092700;28;20073;-71
2021/08/06 11:04:11;;;;;;;9.77;2.55;;;;;;;22.64;56.16;100104.53;5082613;28;20049;-70
2021/08/06 11:06:39;;;;;;;9.60;2.50;;;;;;;22.73;55.75;100116.09;5088344;28;20613;-71
2021/08/06 11:09:25;;;;;;;9.77;2.40;;;;;;;22.92;55.63;100109.97;5073644;28;20059;-72
2021/08/06 11:12:12;;;;;;;7.40;2.15;;;;;;;22.88;55.22;100120.41;5092544;28;20055;-72
2021/08/06 11:14:41;;;;;;;8.27;2.20;;;;;;;22.81;54.72;100115.66;5068055;28;20055;-73
2021/08/06 11:17:34;;;;;;;8.02;1.90;;;;;;;22.66;55.03;100114.16;5092527;28;20048;-70
2021/08/06 11:20:11;;;;;;;6.78;1.80;;;;;;;22.80;55.14;100119.69;5088036;28;20056;-71
2021/08/06 11:22:41;;;;;;;9.38;2.17;;;;;;;22.87;54.54;100119.66;5090843;28;20051;-71
2021/08/06 11:25:22;;;;;;;8.43;1.65;;;;;;;23.04;53.91;100110.28;5047028;28;20047;-68
2021/08/06 11:27:50;;;;;;;10.27;2.85;;;;;;;23.10;53.60;100111.44;5072956;28;20067;-70
2021/08/06 11:30:24;;;;;;;6.05;2.00;;;;;;;23.26;52.76;100122.97;5070674;28;20546;-71
2021/08/06 11:32:56;;;;;;;6.25;1.70;;;;;;;23.35;52.79;100128.97;5086735;28;20701;-70
2021/08/06 11:35:30;;;;;;;8.48;1.50;;;;;;;23.34;52.26;100112.50;5073784;28;20044;-70
2021/08/06 11:38:03;;;;;;;6.55;1.52;;;;;;;22.92;53.28;100124.81;5092149;28;20048;-70
2021/08/06 11:40:36;;;;;;;4.78;1.35;;;;;;;23.17;52.39;100116.22;5088756;28;20063;-70
2021/08/06 11:43:29;;;;;;;6.45;1.55;;;;;;;23.06;53.34;100115.50;5089896;28;20699;-71